Time,TemperatureF,DewpointF,PressureIn,WindDirection,WindDirectionDegrees,WindSpeedMPH,WindSpeedGustMPH,Humidity,HourlyPrecipIn,Conditions,Clouds,dailyrainin,SoftwareType,DateUTC
2013-02-15 00:02:00,45.1,35.6,30.11,NW,315,0.0,0.0,69,0.00,,,0.00,meteohub,2013-02-15 06:02:00,
2013-02-15 00:07:00,45.1,35.6,30.11,NW,315,0.0,0.0,69,0.00,,,0.00,meteohub,2013-02-15 06:07:00,
2013-02-15 00:12:00,44.6,35.4,30.11,NW,315,0.0,0.0,70,0.00,,,0.00,meteohub,2013-02-15 06:12:00,
2013-02-15 00:17:00,44.4,35.2,30.11,NW,315,0.0,0.0,70,0.00,,,0.00,meteohub,2013-02-15 06:17:00,
2013-02-15 00:22:00,44.4,35.2,30.11,NW,315,0.0,0.0,70,0.00,,,0.00,meteohub,2013-02-15 06:22:00,
2013-02-15 00:27:00,44.1,34.9,30.12,NW,315,0.0,0.0,70,0.00,,,0.00,meteohub,2013-02-15 06:27:00,
2013-02-15 00:32:00,44.1,35.2,30.12,NW,315,1.0,0.0,71,0.00,,,0.00,meteohub,2013-02-15 06:32:00,
2013-02-15 00:37:00,43.9,35.4,30.13,NW,315,2.0,2.0,72,0.00,,,0.00,meteohub,2013-02-15 06:37:00,
2013-02-15 00:42:00,43.7,35.2,30.12,NW,315,0.0,2.0,72,0.00,,,0.00,meteohub,2013-02-15 06:42:00,
2013-02-15 00:47:00,43.7,35.2,30.12,NW,315,0.0,2.0,72,0.00,,,0.00,meteohub,2013-02-15 06:47:00,
2013-02-15 00:52:00,43.7,35.6,30.12,NE,45,0.0,2.0,73,0.00,,,0.00,meteohub,2013-02-15 06:52:00,
2013-02-15 01:02:00,43.5,35.4,30.12,NE,45,0.0,0.0,73,0.00,,,0.00,meteohub,2013-02-15 07:02:00,
2013-02-15 01:07:00,43.5,35.4,30.13,NE,45,0.0,0.0,73,0.00,,,0.00,meteohub,2013-02-15 07:07:00,
2013-02-15 01:12:00,43.2,35.4,30.13,NE,45,0.0,0.0,74,0.00,,,0.00,meteohub,2013-02-15 07:12:00,
2013-02-15 01:17:00,43.2,35.4,30.13,NE,45,0.0,0.0,74,0.00,,,0.00,meteohub,2013-02-15 07:17:00,
2013-02-15 01:22:00,43.2,35.8,30.13,NE,45,0.0,0.0,75,0.00,,,0.00,meteohub,2013-02-15 07:22:00,
2013-02-15 01:27:00,42.8,35.4,30.14,NE,45,0.0,0.0,75,0.00,,,0.00,meteohub,2013-02-15 07:27:00,
2013-02-15 01:32:00,42.8,35.4,30.14,NE,45,0.0,0.0,75,0.00,,,0.00,meteohub,2013-02-15 07:32:00,
2013-02-15 01:37:00,42.6,35.2,30.14,NE,45,0.0,0.0,75,0.00,,,0.00,meteohub,2013-02-15 07:37:00,
2013-02-15 01:42:00,42.4,35.1,30.14,NE,45,0.0,0.0,75,0.00,,,0.00,meteohub,2013-02-15 07:42:00,
2013-02-15 01:47:00,42.3,35.2,30.13,NE,45,0.0,0.0,76,0.00,,,0.00,meteohub,2013-02-15 07:47:00,
2013-02-15 01:52:00,42.1,35.1,30.13,NE,45,0.0,0.0,76,0.00,,,0.00,meteohub,2013-02-15 07:52:00,
2013-02-15 02:02:00,41.9,35.2,30.12,NE,45,0.0,0.0,77,0.00,,,0.00,meteohub,2013-02-15 08:02:00,
2013-02-15 02:07:00,41.9,35.2,30.13,NE,45,0.0,0.0,77,0.00,,,0.00,meteohub,2013-02-15 08:07:00,
2013-02-15 02:12:00,41.9,35.6,30.12,NW,315,2.0,2.0,78,0.00,,,0.00,meteohub,2013-02-15 08:12:00,
2013-02-15 02:17:00,41.9,35.8,30.12,NW,315,1.0,2.0,79,0.00,,,0.00,meteohub,2013-02-15 08:17:00,
2013-02-15 02:22:00,41.7,35.8,30.12,NW,315,1.0,2.0,79,0.00,,,0.00,meteohub,2013-02-15 08:22:00,
2013-02-15 02:27:00,41.7,35.8,30.12,NW,315,0.0,2.0,79,0.00,,,0.00,meteohub,2013-02-15 08:27:00,
2013-02-15 02:32:00,41.7,35.8,30.12,NW,315,0.0,2.0,79,0.00,,,0.00,meteohub,2013-02-15 08:32:00,
2013-02-15 02:37:00,41.9,35.8,30.12,NW,315,0.0,1.0,79,0.00,,,0.00,meteohub,2013-02-15 08:37:00,
2013-02-15 02:42:00,41.7,35.8,30.12,NW,315,0.0,0.0,79,0.00,,,0.00,meteohub,2013-02-15 08:42:00,
2013-02-15 02:47:00,41.5,35.6,30.12,NW,315,0.0,0.0,79,0.00,,,0.00,meteohub,2013-02-15 08:47:00,
2013-02-15 02:52:00,41.4,35.4,30.12,NW,315,0.0,0.0,79,0.00,,,0.00,meteohub,2013-02-15 08:52:00,
2013-02-15 02:57:00,41.4,35.4,30.12,NW,315,0.0,0.0,79,0.00,,,0.00,meteohub,2013-02-15 08:57:00,
2013-02-15 03:02:00,41.4,35.6,30.12,NW,315,0.0,0.0,80,0.00,,,0.00,meteohub,2013-02-15 09:02:00,
2013-02-15 03:07:00,41.4,35.6,30.12,NW,315,0.0,0.0,80,0.00,,,0.00,meteohub,2013-02-15 09:07:00,
2013-02-15 03:12:00,41.4,36.0,30.12,NW,315,2.0,2.0,81,0.00,,,0.00,meteohub,2013-02-15 09:12:00,
2013-02-15 03:17:00,41.4,36.3,30.12,NW,315,2.0,2.0,82,0.00,,,0.00,meteohub,2013-02-15 09:17:00,
2013-02-15 03:22:00,41.5,36.7,30.12,NW,315,2.0,2.0,83,0.00,,,0.00,meteohub,2013-02-15 09:22:00,
2013-02-15 03:27:00,41.9,37.4,30.12,NW,315,2.0,2.0,84,0.00,,,0.00,meteohub,2013-02-15 09:27:00,
2013-02-15 03:32:00,41.9,37.4,30.12,NW,315,1.0,2.0,84,0.00,,,0.00,meteohub,2013-02-15 09:32:00,
2013-02-15 03:37:00,41.9,37.0,30.13,NW,315,0.0,2.0,83,0.00,,,0.00,meteohub,2013-02-15 09:37:00,
2013-02-15 03:42:00,41.7,36.9,30.12,NW,315,1.0,2.0,83,0.00,,,0.00,meteohub,2013-02-15 09:42:00,
2013-02-15 03:47:00,41.7,36.7,30.12,NW,315,2.0,2.0,82,0.00,,,0.00,meteohub,2013-02-15 09:47:00,
2013-02-15 03:52:00,41.7,36.9,30.12,NW,315,2.0,2.0,83,0.00,,,0.00,meteohub,2013-02-15 09:52:00,
2013-02-15 03:57:00,41.7,36.9,30.12,NW,315,2.0,2.0,83,0.00,,,0.00,meteohub,2013-02-15 09:57:00,
2013-02-15 04:02:00,41.7,36.9,30.12,NW,315,2.0,3.0,83,0.00,,,0.00,meteohub,2013-02-15 10:02:00,
2013-02-15 04:07:00,41.7,36.9,30.13,NW,315,2.0,3.0,83,0.00,,,0.00,meteohub,2013-02-15 10:07:00,
2013-02-15 04:12:00,41.7,36.9,30.13,NW,315,0.0,2.0,83,0.00,,,0.00,meteohub,2013-02-15 10:12:00,
2013-02-15 04:17:00,41.4,36.3,30.13,NW,315,0.0,2.0,82,0.00,,,0.00,meteohub,2013-02-15 10:17:00,
2013-02-15 04:22:00,41.4,36.3,30.13,SE,135,0.0,2.0,82,0.00,,,0.00,meteohub,2013-02-15 10:22:00,
2013-02-15 04:27:00,41.2,36.1,30.13,SE,135,0.0,1.0,82,0.00,,,0.00,meteohub,2013-02-15 10:27:00,
2013-02-15 04:32:00,41.0,36.0,30.13,SE,135,0.0,1.0,82,0.00,,,0.00,meteohub,2013-02-15 10:32:00,
2013-02-15 04:37:00,40.8,35.8,30.12,SE,135,0.0,1.0,82,0.00,,,0.00,meteohub,2013-02-15 10:37:00,
2013-02-15 04:42:00,40.6,35.6,30.13,SE,135,0.0,0.0,82,0.00,,,0.00,meteohub,2013-02-15 10:42:00,
2013-02-15 04:47:00,40.5,35.4,30.13,SE,135,0.0,0.0,82,0.00,,,0.00,meteohub,2013-02-15 10:47:00,
2013-02-15 04:52:00,40.3,35.6,30.13,SE,135,0.0,0.0,83,0.00,,,0.00,meteohub,2013-02-15 10:52:00,
2013-02-15 04:57:00,40.3,35.6,30.14,SE,135,0.0,0.0,83,0.00,,,0.00,meteohub,2013-02-15 10:57:00,
2013-02-15 05:02:00,40.1,35.4,30.14,SE,135,0.0,0.0,83,0.00,,,0.00,meteohub,2013-02-15 11:02:00,
2013-02-15 05:07:00,40.1,35.4,30.14,SE,135,0.0,0.0,83,0.00,,,0.00,meteohub,2013-02-15 11:07:00,
2013-02-15 05:17:00,39.7,35.1,30.15,SE,135,0.0,0.0,83,0.00,,,0.00,meteohub,2013-02-15 11:17:00,
2013-02-15 05:22:00,39.6,34.9,30.14,SE,135,0.0,0.0,83,0.00,,,0.00,meteohub,2013-02-15 11:22:00,
2013-02-15 05:27:00,39.6,35.1,30.15,NE,45,2.0,0.0,84,0.00,,,0.00,meteohub,2013-02-15 11:27:00,
2013-02-15 05:32:00,39.6,35.1,30.15,NE,45,1.0,2.0,84,0.00,,,0.00,meteohub,2013-02-15 11:32:00,
2013-02-15 05:37:00,39.7,35.2,30.14,NE,45,0.0,2.0,84,0.00,,,0.00,meteohub,2013-02-15 11:37:00,
2013-02-15 05:42:00,39.6,35.1,30.14,NE,45,0.0,2.0,84,0.00,,,0.00,meteohub,2013-02-15 11:42:00,
2013-02-15 05:47:00,39.6,35.4,30.15,NE,45,0.0,2.0,85,0.00,,,0.00,meteohub,2013-02-15 11:47:00,
2013-02-15 05:52:00,39.4,35.2,30.15,NE,45,0.0,2.0,85,0.00,,,0.00,meteohub,2013-02-15 11:52:00,
2013-02-15 05:57:00,39.4,35.2,30.15,NE,45,0.0,1.0,85,0.00,,,0.00,meteohub,2013-02-15 11:57:00,
2013-02-15 06:02:00,39.4,35.2,30.16,NE,45,0.0,0.0,85,0.00,,,0.00,meteohub,2013-02-15 12:02:00,
2013-02-15 06:07:00,39.4,35.2,30.16,NE,45,0.0,0.0,85,0.00,,,0.00,meteohub,2013-02-15 12:07:00,
2013-02-15 06:12:00,39.2,35.1,30.16,NE,45,0.0,0.0,85,0.00,,,0.00,meteohub,2013-02-15 12:12:00,
2013-02-15 06:17:00,38.8,34.7,30.16,NE,45,0.0,0.0,85,0.00,,,0.00,meteohub,2013-02-15 12:17:00,
2013-02-15 06:22:00,38.8,34.7,30.16,NE,45,0.0,0.0,85,0.00,,,0.00,meteohub,2013-02-15 12:22:00,
2013-02-15 06:27:00,38.7,34.5,30.16,NE,45,0.0,0.0,85,0.00,,,0.00,meteohub,2013-02-15 12:27:00,
2013-02-15 06:32:00,38.8,34.7,30.16,NE,45,0.0,1.0,85,0.00,,,0.00,meteohub,2013-02-15 12:32:00,
2013-02-15 06:42:00,38.7,34.9,30.17,NE,45,0.0,1.0,86,0.00,,,0.00,meteohub,2013-02-15 12:42:00,
2013-02-15 06:47:00,38.7,34.9,30.17,NE,45,0.0,0.0,86,0.00,,,0.00,meteohub,2013-02-15 12:47:00,
2013-02-15 06:52:00,38.8,35.1,30.17,SW,225,0.0,0.0,86,0.00,,,0.00,meteohub,2013-02-15 12:52:00,
2013-02-15 06:57:00,38.7,34.9,30.17,SW,225,0.0,0.0,86,0.00,,,0.00,meteohub,2013-02-15 12:57:00,
2013-02-15 07:02:00,38.5,34.7,30.18,SW,225,0.0,0.0,86,0.00,,,0.00,meteohub,2013-02-15 13:02:00,
2013-02-15 07:07:00,38.7,34.9,30.18,SW,225,0.0,0.0,86,0.00,,,0.00,meteohub,2013-02-15 13:07:00,
2013-02-15 07:17:00,39.0,35.4,30.18,SW,225,0.0,0.0,87,0.00,,,0.00,meteohub,2013-02-15 13:17:00,
2013-02-15 07:22:00,39.0,35.4,30.18,SW,225,0.0,0.0,87,0.00,,,0.00,meteohub,2013-02-15 13:22:00,
2013-02-15 07:27:00,39.7,36.5,30.18,SW,225,0.0,0.0,88,0.00,,,0.00,meteohub,2013-02-15 13:27:00,
2013-02-15 07:32:00,40.3,37.0,30.18,SW,225,0.0,0.0,88,0.00,,,0.00,meteohub,2013-02-15 13:32:00,
2013-02-15 07:37:00,41.0,37.8,30.19,SW,225,0.0,0.0,88,0.00,,,0.00,meteohub,2013-02-15 13:37:00,
2013-02-15 07:42:00,41.7,38.5,30.19,NW,315,2.0,2.0,88,0.00,,,0.00,meteohub,2013-02-15 13:42:00,
2013-02-15 07:47:00,42.8,39.7,30.19,NW,315,1.0,2.0,89,0.00,,,0.00,meteohub,2013-02-15 13:47:00,
2013-02-15 07:52:00,43.9,40.8,30.19,NW,315,1.0,2.0,89,0.00,,,0.00,meteohub,2013-02-15 13:52:00,
2013-02-15 07:57:00,44.6,41.5,30.19,North,0,3.0,3.0,89,0.00,,,0.00,meteohub,2013-02-15 13:57:00,
2013-02-15 08:02:00,45.1,41.5,30.19,NW,315,2.0,3.0,87,0.00,,,0.00,meteohub,2013-02-15 14:02:00,
2013-02-15 08:07:00,45.1,41.5,30.19,NW,315,2.0,3.0,87,0.00,,,0.00,meteohub,2013-02-15 14:07:00,
2013-02-15 08:12:00,46.9,41.4,30.19,NW,315,2.0,3.0,81,0.00,,,0.00,meteohub,2013-02-15 14:12:00,
2013-02-15 08:17:00,47.7,41.7,30.20,NW,315,2.0,3.0,80,0.00,,,0.00,meteohub,2013-02-15 14:17:00,
2013-02-15 08:22:00,48.7,42.4,30.20,North,0,1.0,3.0,79,0.00,,,0.00,meteohub,2013-02-15 14:22:00,
2013-02-15 08:27:00,49.8,43.0,30.20,NW,315,2.0,3.0,77,0.00,,,0.00,meteohub,2013-02-15 14:27:00,
2013-02-15 08:32:00,50.4,42.4,30.20,NW,315,3.0,3.0,74,0.00,,,0.00,meteohub,2013-02-15 14:32:00,
2013-02-15 08:37:00,50.5,41.5,30.20,NNE,23,3.0,3.0,71,0.00,,,0.00,meteohub,2013-02-15 14:37:00,
2013-02-15 08:42:00,51.3,41.9,30.20,North,0,2.0,4.0,70,0.00,,,0.00,meteohub,2013-02-15 14:42:00,
2013-02-15 08:47:00,51.8,40.8,30.20,NNW,338,2.0,4.0,66,0.00,,,0.00,meteohub,2013-02-15 14:47:00,
2013-02-15 08:52:00,52.3,41.4,30.20,NNE,23,3.0,3.0,66,0.00,,,0.00,meteohub,2013-02-15 14:52:00,
2013-02-15 08:57:00,52.9,41.4,30.20,North,0,4.0,5.0,65,0.00,,,0.00,meteohub,2013-02-15 14:57:00,
2013-02-15 09:02:00,53.2,41.0,30.20,NE,45,3.0,5.0,63,0.00,,,0.00,meteohub,2013-02-15 15:02:00,
2013-02-15 09:07:00,53.2,41.0,30.20,NE,45,3.0,5.0,63,0.00,,,0.00,meteohub,2013-02-15 15:07:00,
2013-02-15 09:12:00,55.2,42.1,30.20,North,0,2.0,5.0,61,0.00,,,0.00,meteohub,2013-02-15 15:12:00,
2013-02-15 09:17:00,55.8,41.7,30.19,NW,315,2.0,3.0,59,0.00,,,0.00,meteohub,2013-02-15 15:17:00,
2013-02-15 09:22:00,56.5,42.3,30.20,NW,315,2.0,4.0,59,0.00,,,0.00,meteohub,2013-02-15 15:22:00,
2013-02-15 09:27:00,57.4,42.8,30.20,SW,225,2.0,4.0,58,0.00,,,0.00,meteohub,2013-02-15 15:27:00,
2013-02-15 09:32:00,58.1,43.0,30.20,West,270,2.0,3.0,57,0.00,,,0.00,meteohub,2013-02-15 15:32:00,
2013-02-15 09:37:00,58.5,39.9,30.20,NE,45,2.0,3.0,50,0.00,,,0.00,meteohub,2013-02-15 15:37:00,
2013-02-15 09:42:00,59.0,39.9,30.20,South,180,2.0,4.0,49,0.00,,,0.00,meteohub,2013-02-15 15:42:00,
2013-02-15 09:47:00,59.7,38.8,30.20,NE,45,2.0,4.0,46,0.00,,,0.00,meteohub,2013-02-15 15:47:00,
2013-02-15 09:52:00,60.1,36.9,30.20,NW,315,3.0,4.0,42,0.00,,,0.00,meteohub,2013-02-15 15:52:00,
2013-02-15 09:57:00,60.1,36.9,30.20,NW,315,3.0,4.0,42,0.00,,,0.00,meteohub,2013-02-15 15:57:00,
2013-02-15 10:02:00,60.3,35.2,30.20,North,0,4.0,4.0,39,0.00,,,0.00,meteohub,2013-02-15 16:02:00,
2013-02-15 10:07:00,60.3,35.2,30.20,North,0,4.0,4.0,39,0.00,,,0.00,meteohub,2013-02-15 16:07:00,
2013-02-15 10:12:00,61.3,32.0,30.20,NW,315,6.0,6.0,33,0.00,,,0.00,meteohub,2013-02-15 16:12:00,
2013-02-15 10:17:00,61.5,32.9,30.20,NW,315,4.0,6.0,34,0.00,,,0.00,meteohub,2013-02-15 16:17:00,
2013-02-15 10:22:00,61.7,33.8,30.20,SW,225,4.0,6.0,35,0.00,,,0.00,meteohub,2013-02-15 16:22:00,
2013-02-15 10:27:00,62.2,34.9,30.20,NE,45,4.0,6.0,36,0.00,,,0.00,meteohub,2013-02-15 16:27:00,
2013-02-15 10:32:00,62.6,34.5,30.19,NW,315,2.0,4.0,35,0.00,,,0.00,meteohub,2013-02-15 16:32:00,
2013-02-15 10:37:00,62.8,30.9,30.19,NW,315,4.0,5.0,30,0.00,,,0.00,meteohub,2013-02-15 16:37:00,
2013-02-15 10:42:00,63.0,29.3,30.19,NW,315,6.0,6.0,28,0.00,,,0.00,meteohub,2013-02-15 16:42:00,
2013-02-15 10:47:00,63.0,29.3,30.19,West,270,4.0,8.0,28,0.00,,,0.00,meteohub,2013-02-15 16:47:00,
2013-02-15 10:52:00,62.8,29.1,30.19,North,0,4.0,9.0,28,0.00,,,0.00,meteohub,2013-02-15 16:52:00,
2013-02-15 10:57:00,63.3,28.8,30.19,NW,315,5.0,9.0,27,0.00,,,0.00,meteohub,2013-02-15 16:57:00,
2013-02-15 11:02:00,63.7,30.0,30.19,NW,315,2.0,8.0,28,0.00,,,0.00,meteohub,2013-02-15 17:02:00,
2013-02-15 11:07:00,63.7,30.0,30.19,NW,315,2.0,6.0,28,0.00,,,0.00,meteohub,2013-02-15 17:07:00,
2013-02-15 11:17:00,64.6,28.9,30.19,NW,315,3.0,4.0,26,0.00,,,0.00,meteohub,2013-02-15 17:17:00,
2013-02-15 11:22:00,65.3,29.5,30.19,North,0,7.0,7.0,26,0.00,,,0.00,meteohub,2013-02-15 17:22:00,
2013-02-15 11:27:00,64.6,27.0,30.19,NE,45,7.0,9.0,24,0.00,,,0.00,meteohub,2013-02-15 17:27:00,
2013-02-15 11:32:00,64.6,28.9,30.18,NW,315,2.0,11.0,26,0.00,,,0.00,meteohub,2013-02-15 17:32:00,
2013-02-15 11:37:00,64.9,28.2,30.18,WNW,293,5.0,11.0,25,0.00,,,0.00,meteohub,2013-02-15 17:37:00,
2013-02-15 11:42:00,64.6,27.0,30.18,East,90,8.0,11.0,24,0.00,,,0.00,meteohub,2013-02-15 17:42:00,
2013-02-15 11:47:00,64.8,29.1,30.17,West,270,4.0,11.0,26,0.00,,,0.00,meteohub,2013-02-15 17:47:00,
2013-02-15 11:52:00,65.1,26.4,30.17,NW,315,6.0,11.0,23,0.00,,,0.00,meteohub,2013-02-15 17:52:00,
2013-02-15 11:57:00,64.8,26.1,30.17,North,0,4.0,11.0,23,0.00,,,0.00,meteohub,2013-02-15 17:57:00,
2013-02-15 12:02:00,64.6,27.0,30.17,North,0,6.0,11.0,24,0.00,,,0.00,meteohub,2013-02-15 18:02:00,
2013-02-15 12:07:00,64.8,26.1,30.17,NNW,338,12.0,12.0,23,0.00,,,0.00,meteohub,2013-02-15 18:07:00,
2013-02-15 12:12:00,64.6,25.9,30.16,North,0,5.0,12.0,23,0.00,,,0.00,meteohub,2013-02-15 18:12:00,
2013-02-15 12:17:00,64.9,26.2,30.16,SE,135,3.0,12.0,23,0.00,,,0.00,meteohub,2013-02-15 18:17:00,
2013-02-15 12:22:00,64.9,22.8,30.16,NW,315,5.0,12.0,20,0.00,,,0.00,meteohub,2013-02-15 18:22:00,
2013-02-15 12:27:00,64.9,26.2,30.15,NE,45,6.0,7.0,23,0.00,,,0.00,meteohub,2013-02-15 18:27:00,
2013-02-15 12:32:00,65.3,25.5,30.15,North,0,7.0,11.0,22,0.00,,,0.00,meteohub,2013-02-15 18:32:00,
2013-02-15 12:37:00,65.3,25.5,30.15,North,0,7.0,11.0,22,0.00,,,0.00,meteohub,2013-02-15 18:37:00,
2013-02-15 12:42:00,65.7,25.7,30.15,NE,45,4.0,11.0,22,0.00,,,0.00,meteohub,2013-02-15 18:42:00,
2013-02-15 12:47:00,65.7,24.6,30.14,NW,315,8.0,8.0,21,0.00,,,0.00,meteohub,2013-02-15 18:47:00,
2013-02-15 12:52:00,65.7,24.6,30.14,North,0,8.0,9.0,21,0.00,,,0.00,meteohub,2013-02-15 18:52:00,
2013-02-15 12:57:00,65.7,25.7,30.14,NE,45,8.0,9.0,22,0.00,,,0.00,meteohub,2013-02-15 18:57:00,
2013-02-15 13:02:00,65.5,25.7,30.14,West,270,7.0,11.0,22,0.00,,,0.00,meteohub,2013-02-15 19:02:00,
2013-02-15 13:07:00,65.5,25.7,30.14,West,270,7.0,11.0,22,0.00,,,0.00,meteohub,2013-02-15 19:07:00,
2013-02-15 13:12:00,65.8,27.0,30.13,NW,315,4.0,9.0,23,0.00,,,0.00,meteohub,2013-02-15 19:12:00,
2013-02-15 13:17:00,65.8,24.8,30.13,North,0,5.0,8.0,21,0.00,,,0.00,meteohub,2013-02-15 19:17:00,
2013-02-15 13:22:00,65.8,23.7,30.13,NW,315,4.0,8.0,20,0.00,,,0.00,meteohub,2013-02-15 19:22:00,
2013-02-15 13:27:00,66.2,26.2,30.13,SW,225,4.0,8.0,22,0.00,,,0.00,meteohub,2013-02-15 19:27:00,
2013-02-15 13:32:00,65.8,25.9,30.12,West,270,4.0,8.0,22,0.00,,,0.00,meteohub,2013-02-15 19:32:00,
2013-02-15 13:37:00,66.0,22.6,30.12,North,0,8.0,14.0,19,0.00,,,0.00,meteohub,2013-02-15 19:37:00,
2013-02-15 13:42:00,66.2,22.6,30.12,North,0,4.0,14.0,19,0.00,,,0.00,meteohub,2013-02-15 19:42:00,
2013-02-15 13:47:00,66.4,24.1,30.12,NW,315,2.0,14.0,20,0.00,,,0.00,meteohub,2013-02-15 19:47:00,
2013-02-15 13:52:00,66.4,24.1,30.12,SW,225,6.0,8.0,20,0.00,,,0.00,meteohub,2013-02-15 19:52:00,
2013-02-15 13:57:00,66.7,24.4,30.12,West,270,6.0,6.0,20,0.00,,,0.00,meteohub,2013-02-15 19:57:00,
2013-02-15 14:02:00,66.6,24.3,30.12,NW,315,5.0,6.0,20,0.00,,,0.00,meteohub,2013-02-15 20:02:00,
2013-02-15 14:07:00,66.6,24.3,30.12,NW,315,5.0,6.0,20,0.00,,,0.00,meteohub,2013-02-15 20:07:00,
2013-02-15 14:17:00,66.9,23.4,30.12,NW,315,8.0,8.0,19,0.00,,,0.00,meteohub,2013-02-15 20:17:00,
2013-02-15 14:22:00,66.4,25.3,30.11,WNW,293,2.0,8.0,21,0.00,,,0.00,meteohub,2013-02-15 20:22:00,
2013-02-15 14:27:00,66.7,24.4,30.11,SW,225,7.0,8.0,20,0.00,,,0.00,meteohub,2013-02-15 20:27:00,
2013-02-15 14:32:00,67.1,23.5,30.11,NW,315,7.0,8.0,19,0.00,,,0.00,meteohub,2013-02-15 20:32:00,
2013-02-15 14:37:00,67.1,23.5,30.11,West,270,6.0,8.0,19,0.00,,,0.00,meteohub,2013-02-15 20:37:00,
2013-02-15 14:42:00,67.1,23.5,30.11,SW,225,6.0,10.0,19,0.00,,,0.00,meteohub,2013-02-15 20:42:00,
2013-02-15 14:47:00,67.1,20.8,30.10,South,180,8.0,10.0,17,0.00,,,0.00,meteohub,2013-02-15 20:47:00,
2013-02-15 14:52:00,67.1,22.1,30.11,SW,225,4.0,10.0,18,0.00,,,0.00,meteohub,2013-02-15 20:52:00,
2013-02-15 14:57:00,67.5,22.5,30.11,East,90,4.0,8.0,18,0.00,,,0.00,meteohub,2013-02-15 20:57:00,
2013-02-15 15:02:00,67.6,21.2,30.11,NW,315,5.0,8.0,17,0.00,,,0.00,meteohub,2013-02-15 21:02:00,
2013-02-15 15:07:00,67.6,21.2,30.11,NW,315,5.0,8.0,17,0.00,,,0.00,meteohub,2013-02-15 21:07:00,
2013-02-15 15:12:00,67.5,22.5,30.11,SW,225,4.0,8.0,18,0.00,,,0.00,meteohub,2013-02-15 21:12:00,
2013-02-15 15:17:00,67.5,19.8,30.11,NW,315,7.0,8.0,16,0.00,,,0.00,meteohub,2013-02-15 21:17:00,
2013-02-15 15:27:00,67.3,21.0,30.11,West,270,7.0,8.0,17,0.00,,,0.00,meteohub,2013-02-15 21:27:00,
2013-02-15 15:32:00,66.7,20.5,30.10,West,270,2.0,8.0,17,0.00,,,0.00,meteohub,2013-02-15 21:32:00,
2013-02-15 15:37:00,67.3,23.5,30.10,South,180,4.0,8.0,19,0.00,,,0.00,meteohub,2013-02-15 21:37:00,
2013-02-15 15:42:00,67.3,23.5,30.10,West,270,8.0,8.0,19,0.00,,,0.00,meteohub,2013-02-15 21:42:00,
2013-02-15 15:47:00,67.1,24.6,30.10,West,270,7.0,8.0,20,0.00,,,0.00,meteohub,2013-02-15 21:47:00,
2013-02-15 15:52:00,66.7,25.5,30.09,West,270,7.0,11.0,21,0.00,,,0.00,meteohub,2013-02-15 21:52:00,
2013-02-15 15:57:00,66.4,25.3,30.10,SW,225,8.0,11.0,21,0.00,,,0.00,meteohub,2013-02-15 21:57:00,
2013-02-15 16:02:00,66.2,26.2,30.10,SW,225,11.0,11.0,22,0.00,,,0.00,meteohub,2013-02-15 22:02:00,
2013-02-15 16:07:00,66.2,26.2,30.10,SW,225,11.0,11.0,22,0.00,,,0.00,meteohub,2013-02-15 22:07:00,
2013-02-15 16:12:00,66.4,26.4,30.09,NW,315,2.0,11.0,22,0.00,,,0.00,meteohub,2013-02-15 22:12:00,
2013-02-15 16:17:00,66.6,26.6,30.09,SW,225,4.0,11.0,22,0.00,,,0.00,meteohub,2013-02-15 22:17:00,
2013-02-15 16:22:00,66.2,23.9,30.10,West,270,5.0,11.0,20,0.00,,,0.00,meteohub,2013-02-15 22:22:00,
2013-02-15 16:32:00,66.0,25.0,30.10,West,270,3.0,9.0,21,0.00,,,0.00,meteohub,2013-02-15 22:32:00,
2013-02-15 16:37:00,65.8,24.8,30.09,West,270,8.0,9.0,21,0.00,,,0.00,meteohub,2013-02-15 22:37:00,
2013-02-15 16:42:00,65.7,24.6,30.10,SW,225,4.0,11.0,21,0.00,,,0.00,meteohub,2013-02-15 22:42:00,
2013-02-15 16:47:00,65.8,25.9,30.10,SW,225,6.0,11.0,22,0.00,,,0.00,meteohub,2013-02-15 22:47:00,
2013-02-15 16:52:00,65.7,23.5,30.10,NW,315,4.0,11.0,20,0.00,,,0.00,meteohub,2013-02-15 22:52:00,
2013-02-15 16:57:00,65.7,23.5,30.10,West,270,4.0,8.0,20,0.00,,,0.00,meteohub,2013-02-15 22:57:00,
2013-02-15 17:02:00,65.5,23.4,30.10,West,270,2.0,7.0,20,0.00,,,0.00,meteohub,2013-02-15 23:02:00,
2013-02-15 17:07:00,65.5,23.4,30.10,West,270,2.0,7.0,20,0.00,,,0.00,meteohub,2013-02-15 23:07:00,
2013-02-15 17:12:00,64.9,24.1,30.10,West,270,2.0,7.0,21,0.00,,,0.00,meteohub,2013-02-15 23:12:00,
2013-02-15 17:22:00,64.0,25.5,30.10,West,270,4.0,7.0,23,0.00,,,0.00,meteohub,2013-02-15 23:22:00,
2013-02-15 17:27:00,63.5,27.0,30.10,West,270,3.0,8.0,25,0.00,,,0.00,meteohub,2013-02-15 23:27:00,
2013-02-15 17:32:00,63.1,26.8,30.10,West,270,4.0,9.0,25,0.00,,,0.00,meteohub,2013-02-15 23:32:00,
2013-02-15 17:37:00,63.0,26.6,30.10,West,270,3.0,9.0,25,0.00,,,0.00,meteohub,2013-02-15 23:37:00,
2013-02-15 17:42:00,62.6,26.2,30.10,NW,315,4.0,9.0,25,0.00,,,0.00,meteohub,2013-02-15 23:42:00,
2013-02-15 17:52:00,62.1,25.9,30.10,NW,315,6.0,7.0,25,0.00,,,0.00,meteohub,2013-02-15 23:52:00,
2013-02-15 17:57:00,61.9,25.7,30.10,West,270,3.0,9.0,25,0.00,,,0.00,meteohub,2013-02-15 23:57:00,
2013-02-15 18:02:00,61.9,25.7,30.10,SSW,203,2.0,9.0,25,0.00,,,0.00,meteohub,2013-02-16 00:02:00,
2013-02-15 18:07:00,61.9,25.7,30.10,SSW,203,2.0,9.0,25,0.00,,,0.00,meteohub,2013-02-16 00:07:00,
2013-02-15 18:12:00,61.2,25.0,30.11,West,270,2.0,7.0,25,0.00,,,0.00,meteohub,2013-02-16 00:12:00,
2013-02-15 18:17:00,61.0,25.0,30.11,West,270,2.0,3.0,25,0.00,,,0.00,meteohub,2013-02-16 00:17:00,
2013-02-15 18:22:00,60.6,25.5,30.11,NW,315,4.0,4.0,26,0.00,,,0.00,meteohub,2013-02-16 00:22:00,
2013-02-15 18:27:00,60.4,26.2,30.12,West,270,2.0,4.0,27,0.00,,,0.00,meteohub,2013-02-16 00:27:00,
2013-02-15 18:32:00,60.3,27.0,30.12,West,270,3.0,4.0,28,0.00,,,0.00,meteohub,2013-02-16 00:32:00,
2013-02-15 18:37:00,60.3,27.0,30.12,West,270,2.0,4.0,28,0.00,,,0.00,meteohub,2013-02-16 00:37:00,
2013-02-15 18:42:00,59.9,27.5,30.11,West,270,3.0,4.0,29,0.00,,,0.00,meteohub,2013-02-16 00:42:00,
2013-02-15 18:47:00,59.9,27.5,30.12,NW,315,4.0,4.0,29,0.00,,,0.00,meteohub,2013-02-16 00:47:00,
2013-02-15 18:52:00,59.7,28.2,30.12,WNW,293,4.0,5.0,30,0.00,,,0.00,meteohub,2013-02-16 00:52:00,
2013-02-15 18:57:00,59.4,28.8,30.12,WNW,293,4.0,5.0,31,0.00,,,0.00,meteohub,2013-02-16 00:57:00,
2013-02-15 19:02:00,59.4,28.8,30.13,WNW,293,4.0,5.0,31,0.00,,,0.00,meteohub,2013-02-16 01:02:00,
2013-02-15 19:07:00,59.4,28.8,30.13,WNW,293,4.0,5.0,31,0.00,,,0.00,meteohub,2013-02-16 01:07:00,
2013-02-15 19:12:00,58.8,29.8,30.13,WNW,293,6.0,6.0,33,0.00,,,0.00,meteohub,2013-02-16 01:12:00,
2013-02-15 19:17:00,58.6,28.9,30.13,NW,315,7.0,8.0,32,0.00,,,0.00,meteohub,2013-02-16 01:17:00,
2013-02-15 19:22:00,58.6,29.7,30.14,NW,315,4.0,8.0,33,0.00,,,0.00,meteohub,2013-02-16 01:22:00,
2013-02-15 19:27:00,58.3,29.3,30.13,West,270,5.0,8.0,33,0.00,,,0.00,meteohub,2013-02-16 01:27:00,
2013-02-15 19:32:00,58.1,29.1,30.14,NW,315,6.0,8.0,33,0.00,,,0.00,meteohub,2013-02-16 01:32:00,
2013-02-15 19:42:00,57.6,29.5,30.15,North,0,4.0,9.0,34,0.00,,,0.00,meteohub,2013-02-16 01:42:00,
2013-02-15 19:47:00,57.4,30.0,30.15,NW,315,4.0,8.0,35,0.00,,,0.00,meteohub,2013-02-16 01:47:00,
2013-02-15 19:52:00,57.2,29.8,30.15,NW,315,3.0,8.0,35,0.00,,,0.00,meteohub,2013-02-16 01:52:00,
2013-02-15 19:57:00,56.8,30.2,30.15,NNW,338,7.0,7.0,36,0.00,,,0.00,meteohub,2013-02-16 01:57:00,
2013-02-15 20:02:00,56.8,30.2,30.15,NW,315,4.0,7.0,36,0.00,,,0.00,meteohub,2013-02-16 02:02:00,
2013-02-15 20:07:00,56.8,30.2,30.15,NW,315,4.0,7.0,36,0.00,,,0.00,meteohub,2013-02-16 02:07:00,
2013-02-15 20:12:00,56.5,30.6,30.16,WNW,293,8.0,8.0,37,0.00,,,0.00,meteohub,2013-02-16 02:12:00,
2013-02-15 20:22:00,56.1,31.5,30.17,NW,315,7.0,8.0,39,0.00,,,0.00,meteohub,2013-02-16 02:22:00,
2013-02-15 20:32:00,55.6,31.6,30.17,North,0,3.0,8.0,40,0.00,,,0.00,meteohub,2013-02-16 02:32:00,
2013-02-15 20:37:00,55.6,31.6,30.17,NW,315,7.0,8.0,40,0.00,,,0.00,meteohub,2013-02-16 02:37:00,
2013-02-15 20:42:00,55.8,32.4,30.17,NW,315,9.0,13.0,41,0.00,,,0.00,meteohub,2013-02-16 02:42:00,
2013-02-15 20:47:00,55.6,32.2,30.17,WNW,293,8.0,13.0,41,0.00,,,0.00,meteohub,2013-02-16 02:47:00,
2013-02-15 20:52:00,55.4,32.7,30.17,NW,315,4.0,13.0,42,0.00,,,0.00,meteohub,2013-02-16 02:52:00,
2013-02-15 20:57:00,55.2,33.1,30.18,NW,315,4.0,9.0,43,0.00,,,0.00,meteohub,2013-02-16 02:57:00,
2013-02-15 21:02:00,55.0,32.9,30.19,NW,315,4.0,8.0,43,0.00,,,0.00,meteohub,2013-02-16 03:02:00,
2013-02-15 21:07:00,55.0,32.9,30.18,NW,315,4.0,7.0,43,0.00,,,0.00,meteohub,2013-02-16 03:07:00,
2013-02-15 21:12:00,54.7,33.8,30.19,NW,315,4.0,7.0,45,0.00,,,0.00,meteohub,2013-02-16 03:12:00,
2013-02-15 21:17:00,54.5,34.2,30.19,North,0,6.0,8.0,46,0.00,,,0.00,meteohub,2013-02-16 03:17:00,
2013-02-15 21:22:00,54.3,35.1,30.19,WNW,293,4.0,8.0,48,0.00,,,0.00,meteohub,2013-02-16 03:22:00,
2013-02-15 21:27:00,54.1,34.9,30.19,West,270,7.0,8.0,48,0.00,,,0.00,meteohub,2013-02-16 03:27:00,
2013-02-15 21:32:00,54.0,35.2,30.19,NW,315,7.0,9.0,49,0.00,,,0.00,meteohub,2013-02-16 03:32:00,
2013-02-15 21:37:00,54.0,35.2,30.20,NW,315,4.0,11.0,49,0.00,,,0.00,meteohub,2013-02-16 03:37:00,
2013-02-15 21:42:00,53.8,35.1,30.19,NW,315,14.0,14.0,49,0.00,,,0.00,meteohub,2013-02-16 03:42:00,
2013-02-15 21:47:00,53.6,34.9,30.19,NW,315,4.0,14.0,49,0.00,,,0.00,meteohub,2013-02-16 03:47:00,
2013-02-15 21:57:00,53.4,35.2,30.19,NW,315,5.0,14.0,50,0.00,,,0.00,meteohub,2013-02-16 03:57:00,
2013-02-15 22:02:00,53.4,35.2,30.20,West,270,4.0,9.0,50,0.00,,,0.00,meteohub,2013-02-16 04:02:00,
2013-02-15 22:07:00,53.4,35.2,30.20,West,270,4.0,8.0,50,0.00,,,0.00,meteohub,2013-02-16 04:07:00,
2013-02-15 22:17:00,53.1,36.0,30.20,West,270,7.0,8.0,52,0.00,,,0.00,meteohub,2013-02-16 04:17:00,
2013-02-15 22:22:00,52.9,35.8,30.20,WNW,293,7.0,8.0,52,0.00,,,0.00,meteohub,2013-02-16 04:22:00,
2013-02-15 22:32:00,52.9,36.1,30.20,NW,315,4.0,10.0,53,0.00,,,0.00,meteohub,2013-02-16 04:32:00,
2013-02-15 22:37:00,52.9,36.1,30.20,North,0,11.0,11.0,53,0.00,,,0.00,meteohub,2013-02-16 04:37:00,
2013-02-15 22:42:00,52.9,36.1,30.21,WNW,293,4.0,13.0,53,0.00,,,0.00,meteohub,2013-02-16 04:42:00,
2013-02-15 22:47:00,52.5,36.3,30.20,NW,315,6.0,13.0,54,0.00,,,0.00,meteohub,2013-02-16 04:47:00,
2013-02-15 22:57:00,52.3,36.1,30.21,West,270,4.0,8.0,54,0.00,,,0.00,meteohub,2013-02-16 04:57:00,
2013-02-15 23:02:00,52.3,36.1,30.21,WNW,293,4.0,8.0,54,0.00,,,0.00,meteohub,2013-02-16 05:02:00,
2013-02-15 23:07:00,52.3,36.1,30.20,WNW,293,4.0,8.0,54,0.00,,,0.00,meteohub,2013-02-16 05:07:00,
2013-02-15 23:12:00,52.0,36.3,30.20,NW,315,4.0,4.0,55,0.00,,,0.00,meteohub,2013-02-16 05:12:00,
2013-02-15 23:17:00,51.8,36.1,30.21,NW,315,4.0,4.0,55,0.00,,,0.00,meteohub,2013-02-16 05:17:00,
2013-02-15 23:27:00,51.6,36.0,30.20,West,270,4.0,4.0,55,0.00,,,0.00,meteohub,2013-02-16 05:27:00,
2013-02-15 23:37:00,51.6,36.0,30.21,NW,315,4.0,6.0,55,0.00,,,0.00,meteohub,2013-02-16 05:37:00,
2013-02-15 23:47:00,51.4,35.8,30.20,NW,315,3.0,6.0,55,0.00,,,0.00,meteohub,2013-02-16 05:47:00,
2013-02-15 23:57:00,51.3,35.6,30.20,NW,315,3.0,7.0,55,0.00,,,0.00,meteohub,2013-02-16 05:57:00,